Time;durP1;ratioP1;P1;durP2;ratioP2;P2;SDS_P1;SDS_P2;PMS_P1;PMS_P2;Temp;Humidity;BMP_temperature;BMP_pressure;BME280_temperature;BME280_humidity;BME280_pressure;Samples;Min_cycle;Max_cycle;Signal;HPM_P1;HPM_P2
2024/04/06 00:00:38;;;;;;;1.80;0.90;;;24.20;65.60;;;;;;5054443;28;20446;-85
2024/04/06 00:03:09;;;;;;;2.03;1.00;;;24.20;65.60;;;;;;5054338;28;20443;-85
2024/04/06 00:05:35;;;;;;;2.10;1.20;;;24.10;65.50;;;;;;5054555;28;20449;-85
2024/04/06 00:08:03;;;;;;;1.60;0.90;;;24.20;65.70;;;;;;5054643;28;20809;-85
2024/04/06 00:10:30;;;;;;;1.50;0.80;;;24.10;65.50;;;;;;5054497;28;20445;-85
2024/04/06 00:12:56;;;;;;;1.83;1.10;;;24.10;65.60;;;;;;5036651;28;20491;-85
2024/04/06 00:15:22;;;;;;;2.13;0.80;;;24.10;65.60;;;;;;5054157;28;20485;-85
2024/04/06 00:17:48;;;;;;;1.60;1.00;;;24.10;65.60;;;;;;5054058;28;20219;-85
2024/04/06 00:20:15;;;;;;;3.00;1.30;;;24.10;65.60;;;;;;5054246;28;20444;-85
2024/04/06 00:22:41;;;;;;;3.67;0.93;;;24.10;65.60;;;;;;5054211;28;20198;-84
2024/04/06 00:25:09;;;;;;;1.43;0.70;;;24.10;65.70;;;;;;5053928;28;20449;-85
2024/04/06 00:27:35;;;;;;;2.23;1.10;;;24.10;65.60;;;;;;5053974;28;20198;-85
2024/04/06 00:30:02;;;;;;;2.53;0.93;;;24.10;65.60;;;;;;5053855;28;20442;-84
2024/04/06 00:32:27;;;;;;;1.60;0.90;;;24.10;65.70;;;;;;5054129;28;20871;-85
2024/04/06 00:34:54;;;;;;;2.10;1.13;;;24.10;65.70;;;;;;5053861;28;20568;-85
2024/04/06 00:37:20;;;;;;;1.60;1.10;;;24.10;65.60;;;;;;5053923;28;20198;-85
2024/04/06 00:39:47;;;;;;;1.60;0.80;;;24.10;65.70;;;;;;5053853;28;20448;-85
2024/04/06 00:42:14;;;;;;;1.60;0.87;;;24.00;65.60;;;;;;5053685;28;20190;-85
2024/04/06 00:44:41;;;;;;;1.50;1.00;;;24.00;65.60;;;;;;5054001;28;20576;-85
2024/04/06 00:47:07;;;;;;;2.33;0.90;;;24.00;65.60;;;;;;5053574;28;20808;-84
2024/04/06 00:49:34;;;;;;;1.60;0.80;;;24.00;65.60;;;;;;5053863;28;20575;-85
2024/04/06 00:52:00;;;;;;;1.80;0.83;;;24.10;65.70;;;;;;5054244;28;20195;-85
2024/04/06 00:54:27;;;;;;;1.60;1.00;;;24.00;65.60;;;;;;5053766;28;20437;-85
2024/04/06 00:56:53;;;;;;;1.70;0.97;;;24.10;65.80;;;;;;5053880;28;20203;-85
2024/04/06 00:59:21;;;;;;;1.70;0.90;;;24.00;65.70;;;;;;5053573;28;20503;-85
2024/04/06 01:01:48;;;;;;;1.70;1.07;;;24.00;65.70;;;;;;5052472;28;20444;-85
2024/04/06 01:04:15;;;;;;;1.67;0.90;;;24.00;65.70;;;;;;5052140;28;20449;-85
2024/04/06 01:06:41;;;;;;;1.90;0.80;;;24.00;65.80;;;;;;5053290;28;20876;-85
2024/04/06 01:09:08;;;;;;;1.83;0.90;;;24.00;65.70;;;;;;5053099;28;21002;-85
2024/04/06 01:11:35;;;;;;;2.67;1.10;;;23.90;65.60;;;;;;5020170;28;20661;-85
2024/04/06 01:14:03;;;;;;;2.00;1.10;;;23.90;65.50;;;;;;5053775;28;20477;-84
2024/04/06 01:16:30;;;;;;;1.47;0.77;;;23.90;65.60;;;;;;5053246;28;20493;-85
2024/04/06 01:18:57;;;;;;;1.60;0.90;;;23.90;65.60;;;;;;5053332;28;20461;-85
2024/04/06 01:21:22;;;;;;;2.60;0.90;;;23.90;65.70;;;;;;5053563;28;20426;-85
2024/04/06 01:23:53;;;;;;;1.53;0.93;;;23.90;65.70;;;;;;5053360;28;20449;-85
2024/04/06 01:26:20;;;;;;;1.60;0.90;;;23.90;65.80;;;;;;5052680;28;20197;-84
2024/04/06 01:28:47;;;;;;;1.77;0.90;;;23.90;65.70;;;;;;5053355;28;20441;-85
2024/04/06 01:31:13;;;;;;;1.90;0.97;;;23.90;65.80;;;;;;5053264;28;20440;-85
2024/04/06 01:33:40;;;;;;;1.80;0.90;;;24.00;65.90;;;;;;5053795;28;20815;-85
2024/04/06 01:36:06;;;;;;;1.57;0.97;;;23.80;65.70;;;;;;5053571;28;20495;-95
2024/04/06 01:38:33;;;;;;;1.70;0.90;;;23.80;65.70;;;;;;5057415;28;20485;-85
2024/04/06 01:40:59;;;;;;;1.53;0.77;;;23.90;65.80;;;;;;5057729;28;20437;-85
2024/04/06 01:43:27;;;;;;;2.10;1.07;;;23.80;65.80;;;;;;5039729;28;20452;-85
2024/04/06 01:45:53;;;;;;;1.80;0.83;;;24.00;66.00;;;;;;5057246;28;20202;-84
2024/04/06 01:48:19;;;;;;;1.60;0.93;;;23.90;65.90;;;;;;5057271;28;20960;-85
2024/04/06 01:50:45;;;;;;;2.67;0.90;;;23.80;65.80;;;;;;5057497;28;20226;-85
2024/04/06 01:53:12;;;;;;;1.53;0.80;;;23.80;65.70;;;;;;5057187;28;20447;-84
2024/04/06 01:55:37;;;;;;;1.83;0.87;;;23.90;65.80;;;;;;5057304;28;20222;-84
2024/04/06 01:58:04;;;;;;;2.37;1.10;;;23.80;65.70;;;;;;5057072;28;20448;-85
2024/04/06 02:00:31;;;;;;;2.60;1.03;;;23.80;65.70;;;;;;5057010;28;20198;-85
2024/04/06 02:03:00;;;;;;;1.70;0.80;;;23.90;65.80;;;;;;5056938;28;20448;-85
2024/04/06 02:05:26;;;;;;;2.33;1.03;;;23.90;65.70;;;;;;5056918;28;20445;-84
2024/04/06 02:07:53;;;;;;;1.90;0.87;;;23.90;65.60;;;;;;5056984;28;20540;-85
2024/04/06 02:10:19;;;;;;;1.50;0.87;;;23.90;65.60;;;;;;5056658;28;20194;-85
2024/04/06 02:12:47;;;;;;;1.97;0.80;;;23.90;65.60;;;;;;5057110;28;20441;-85
2024/04/06 02:15:12;;;;;;;2.10;1.33;;;23.90;65.50;;;;;;5056949;28;20260;-85
2024/04/06 02:17:40;;;;;;;1.60;1.00;;;23.90;65.50;;;;;;5056738;28;20453;-85
2024/04/06 02:20:09;;;;;;;2.07;1.00;;;24.00;65.70;;;;;;5056411;28;20203;-84
2024/04/06 02:22:35;;;;;;;1.50;0.80;;;23.90;65.50;;;;;;5056867;28;20445;-84
2024/04/06 02:25:03;;;;;;;1.60;0.90;;;23.90;65.40;;;;;;5063485;28;20433;-87
2024/04/06 02:27:29;;;;;;;1.50;0.80;;;24.00;65.50;;;;;;5081282;28;20409;-87
2024/04/06 02:29:55;;;;;;;1.87;0.83;;;24.00;65.50;;;;;;5078669;28;20433;-84
2024/04/06 02:32:22;;;;;;;1.57;0.90;;;24.00;65.50;;;;;;5056257;28;20528;-85
2024/04/06 02:34:49;;;;;;;1.70;0.80;;;24.00;65.40;;;;;;5056285;28;20198;-85
2024/04/06 02:37:16;;;;;;;1.50;0.70;;;24.00;65.30;;;;;;5056062;28;20830;-85
2024/04/06 02:39:42;;;;;;;2.43;0.80;;;24.00;65.30;;;;;;5056257;28;20437;-85
2024/04/06 02:42:08;;;;;;;1.73;1.00;;;24.00;65.20;;;;;;5056120;28;20438;-85
2024/04/06 02:44:34;;;;;;;1.83;1.00;;;24.00;65.20;;;;;;5056493;28;20421;-85
2024/04/06 02:47:02;;;;;;;1.50;0.83;;;24.00;65.20;;;;;;5056912;28;20448;-85
2024/04/06 02:49:28;;;;;;;1.40;0.70;;;24.00;65.20;;;;;;5062693;28;20260;-84
2024/04/06 02:51:56;;;;;;;1.60;0.80;;;24.10;65.30;;;;;;5076554;28;20951;-85
2024/04/06 02:54:22;;;;;;;1.93;1.03;;;24.10;65.20;;;;;;5075974;28;20437;-85
2024/04/06 02:56:48;;;;;;;1.60;1.03;;;24.20;65.30;;;;;;5075975;28;20486;-84
2024/04/06 02:59:14;;;;;;;1.50;0.80;;;24.10;65.20;;;;;;5075745;28;20194;-84
2024/04/06 03:01:41;;;;;;;1.43;0.73;;;24.10;65.20;;;;;;5076002;28;20458;-84
2024/04/06 03:04:07;;;;;;;1.50;0.80;;;24.10;65.20;;;;;;5075629;28;20425;-85
2024/04/06 03:06:34;;;;;;;1.80;1.13;;;24.10;65.20;;;;;;5075971;28;20436;-85
2024/04/06 03:09:01;;;;;;;1.77;0.90;;;24.10;65.20;;;;;;5075521;28;20565;-85
2024/04/06 03:11:28;;;;;;;1.60;0.80;;;24.10;65.20;;;;;;5075614;28;20448;-84
2024/04/06 03:13:53;;;;;;;1.70;0.70;;;24.10;65.20;;;;;;5075656;28;20923;-85
2024/04/06 03:16:20;;;;;;;1.53;0.80;;;24.00;65.00;;;;;;5075423;28;20488;-84
2024/04/06 03:18:47;;;;;;;1.60;0.90;;;24.00;65.10;;;;;;5075371;28;20472;-85
2024/04/06 03:21:13;;;;;;;1.77;0.80;;;24.00;65.10;;;;;;5075374;28;20456;-85
2024/04/06 03:23:40;;;;;;;1.60;1.00;;;24.10;65.20;;;;;;5075056;28;20445;-85
2024/04/06 03:26:07;;;;;;;1.50;0.80;;;24.00;65.20;;;;;;5075176;28;20370;-85
2024/04/06 03:28:33;;;;;;;1.40;0.73;;;24.00;65.20;;;;;;5075426;28;21008;-85
2024/04/06 03:30:59;;;;;;;1.50;0.80;;;24.00;65.20;;;;;;5075281;28;20442;-85
2024/04/06 03:33:26;;;;;;;1.40;0.70;;;24.00;65.20;;;;;;5075296;28;20496;-85
2024/04/06 03:35:52;;;;;;;1.50;0.90;;;24.00;65.20;;;;;;5074955;28;20480;-84
2024/04/06 03:38:19;;;;;;;1.60;0.90;;;24.00;66.00;;;;;;5075258;28;20808;-85
2024/04/06 03:40:46;;;;;;;1.60;0.80;;;24.00;65.10;;;;;;5075050;28;20198;-85
2024/04/06 03:43:13;;;;;;;1.50;0.90;;;24.10;65.20;;;;;;5074918;28;20790;-84
2024/04/06 03:45:39;;;;;;;1.70;0.90;;;24.00;65.00;;;;;;5075298;28;20497;-85
2024/04/06 03:48:06;;;;;;;1.40;0.70;;;24.10;66.00;;;;;;5074730;28;20460;-85
2024/04/06 03:50:33;;;;;;;1.50;0.80;;;24.00;65.00;;;;;;5074547;28;20500;-84
2024/04/06 03:53:00;;;;;;;1.70;0.90;;;24.00;65.00;;;;;;5075079;28;20437;-85
2024/04/06 03:55:26;;;;;;;1.50;0.80;;;24.20;65.30;;;;;;5074731;28;20483;-84
2024/04/06 03:57:53;;;;;;;1.40;0.80;;;24.10;65.10;;;;;;5074575;28;20440;-85
2024/04/06 04:00:27;;;;;;;1.70;0.90;;;24.10;65.20;;;;;;5074100;28;20460;-84
2024/04/06 04:02:53;;;;;;;1.50;0.90;;;24.10;65.10;;;;;;5075388;28;20454;-85
2024/04/06 04:05:20;;;;;;;1.60;1.00;;;24.10;65.10;;;;;;5074921;28;20440;-85
2024/04/06 04:07:46;;;;;;;1.50;0.90;;;24.10;65.10;;;;;;5074466;28;20194;-84
2024/04/06 04:10:13;;;;;;;1.50;0.73;;;24.20;65.10;;;;;;5074262;28;20531;-84
2024/04/06 04:12:38;;;;;;;1.40;0.77;;;24.10;65.00;;;;;;5074842;28;20438;-85
2024/04/06 04:15:06;;;;;;;1.60;0.80;;;24.10;65.00;;;;;;5074806;28;20436;-85
2024/04/06 04:17:33;;;;;;;2.47;1.00;;;24.10;65.00;;;;;;5074678;28;20241;-85
2024/04/06 04:20:00;;;;;;;1.40;0.70;;;24.10;65.00;;;;;;5074967;28;20452;-85
2024/04/06 04:22:26;;;;;;;1.80;0.80;;;24.20;65.10;;;;;;5074435;28;20428;-85
2024/04/06 04:24:53;;;;;;;1.50;0.90;;;24.10;64.90;;;;;;5074489;28;20429;-84
2024/04/06 04:27:19;;;;;;;1.50;0.77;;;24.10;64.90;;;;;;5074732;28;20208;-85
2024/04/06 04:29:45;;;;;;;1.93;0.90;;;24.20;65.00;;;;;;5074486;28;20437;-85
2024/04/06 04:32:11;;;;;;;1.50;0.80;;;24.10;64.80;;;;;;5074798;28;20439;-84
2024/04/06 04:34:39;;;;;;;2.87;0.90;;;24.20;64.90;;;;;;5074312;28;20440;-85
2024/04/06 04:37:05;;;;;;;1.50;0.80;;;24.10;64.80;;;;;;5074271;28;20221;-84
2024/04/06 04:39:32;;;;;;;1.50;0.80;;;24.10;64.80;;;;;;5074052;28;20451;-84
2024/04/06 04:41:58;;;;;;;1.50;0.80;;;24.10;64.70;;;;;;5074620;28;20197;-85
2024/04/06 04:44:26;;;;;;;1.50;0.80;;;24.20;64.80;;;;;;5074406;28;20801;-85
2024/04/06 04:46:52;;;;;;;1.60;0.90;;;24.20;64.90;;;;;;5071998;28;20198;-84
2024/04/06 04:49:19;;;;;;;1.70;0.90;;;24.10;64.70;;;;;;5073868;28;20831;-84
2024/04/06 04:51:46;;;;;;;1.43;0.80;;;24.10;64.80;;;;;;5075340;28;20201;-83
2024/04/06 04:54:12;;;;;;;1.70;0.80;;;24.10;64.80;;;;;;5058608;28;20843;-84
2024/04/06 04:56:38;;;;;;;1.50;0.80;;;24.20;64.90;;;;;;5061323;28;20483;-84
2024/04/06 04:59:05;;;;;;;1.40;0.70;;;24.10;65.60;;;;;;5068531;28;20441;-84
2024/04/06 05:01:31;;;;;;;1.70;0.80;;;24.10;64.70;;;;;;5062194;28;20433;-83
2024/04/06 05:03:58;;;;;;;2.60;0.80;;;24.20;64.80;;;;;;5054207;28;20452;-84
2024/04/06 05:06:23;;;;;;;1.70;0.90;;;24.20;64.70;;;;;;5054346;28;20555;-85
2024/04/06 05:08:51;;;;;;;1.70;0.80;;;24.20;64.70;;;;;;5054123;28;20441;-85
2024/04/06 05:11:17;;;;;;;1.60;0.80;;;24.20;64.70;;;;;;5053572;28;20221;-85
2024/04/06 05:13:44;;;;;;;1.50;0.80;;;24.30;64.70;;;;;;5054275;28;20441;-85
2024/04/06 05:16:10;;;;;;;1.60;0.90;;;24.20;64.60;;;;;;5054014;28;20226;-85
2024/04/06 05:18:37;;;;;;;1.60;0.83;;;24.20;64.50;;;;;;5054801;28;20468;-85
2024/04/06 05:21:03;;;;;;;1.50;0.90;;;24.20;64.60;;;;;;5053854;28;20218;-85
2024/04/06 05:23:31;;;;;;;1.80;0.90;;;24.30;64.70;;;;;;5054216;28;20487;-85
2024/04/06 05:25:58;;;;;;;1.50;0.80;;;24.20;64.50;;;;;;5054141;28;20445;-84
2024/04/06 05:28:26;;;;;;;1.50;0.80;;;24.30;64.60;;;;;;5054440;28;20437;-86
2024/04/06 05:30:52;;;;;;;1.73;1.00;;;24.30;64.40;;;;;;5053880;28;20495;-85
2024/04/06 05:33:20;;;;;;;1.60;1.00;;;24.30;64.50;;;;;;5055379;28;20453;-90
2024/04/06 05:35:48;;;;;;;2.63;1.33;;;24.30;64.30;;;;;;5076233;28;20459;-93
2024/04/06 05:38:15;;;;;;;1.80;0.90;;;24.30;64.10;;;;;;5076727;28;20480;-91
2024/04/06 05:40:43;;;;;;;1.90;1.00;;;24.40;64.40;;;;;;5062658;28;20425;-85
2024/04/06 05:43:12;;;;;;;6.87;1.20;;;24.30;64.20;;;;;;5053150;28;20440;-85
2024/04/06 05:45:39;;;;;;;1.60;0.90;;;24.30;63.90;;;;;;5053040;28;20947;-85
2024/04/06 05:48:06;;;;;;;1.70;0.80;;;24.30;63.90;;;;;;5053004;28;20461;-85
2024/04/06 05:50:32;;;;;;;1.67;0.90;;;24.30;63.80;;;;;;5053097;28;20461;-85
2024/04/06 05:52:59;;;;;;;5.50;1.10;;;24.30;64.10;;;;;;5053006;28;20528;-86
2024/04/06 05:55:25;;;;;;;9.90;1.90;;;24.30;64.20;;;;;;5053114;28;20426;-85
2024/04/06 05:57:52;;;;;;;7.07;1.30;;;24.30;64.40;;;;;;5053191;28;20437;-85
2024/04/06 06:00:24;;;;;;;5.20;1.27;;;24.20;64.10;;;;;;5052910;28;20286;-85
2024/04/06 06:02:51;;;;;;;4.30;1.10;;;24.30;64.00;;;;;;5053160;28;20456;-86
2024/04/06 06:05:18;;;;;;;1.70;0.90;;;24.30;63.90;;;;;;5053037;28;20441;-85
2024/04/06 06:07:43;;;;;;;1.70;1.00;;;24.40;63.90;;;;;;5053430;28;20453;-85
2024/04/06 06:10:10;;;;;;;3.30;1.30;;;24.40;63.90;;;;;;5053260;28;20528;-85
2024/04/06 06:12:36;;;;;;;3.70;0.90;;;24.40;63.90;;;;;;5052932;28;20221;-85
2024/04/06 06:15:03;;;;;;;2.80;1.10;;;24.40;63.90;;;;;;5053446;28;20459;-85
2024/04/06 06:17:31;;;;;;;1.90;1.00;;;24.40;63.90;;;;;;5053160;28;20238;-85
2024/04/06 06:19:57;;;;;;;7.53;0.90;;;24.40;63.90;;;;;;5053263;28;20441;-85
2024/04/06 06:22:23;;;;;;;3.13;1.00;;;24.50;64.50;;;;;;5053461;28;20955;-85
2024/04/06 06:24:50;;;;;;;1.97;1.20;;;24.50;64.50;;;;;;5057540;28;20442;-85
2024/04/06 06:27:16;;;;;;;4.80;1.53;;;24.50;64.60;;;;;;5056724;28;20441;-85
2024/04/06 06:29:44;;;;;;;3.27;1.60;;;24.50;65.70;;;;;;5056568;28;20445;-85
2024/04/06 06:32:09;;;;;;;1.60;0.93;;;24.50;64.80;;;;;;5056519;28;20505;-87
2024/04/06 06:34:37;;;;;;;2.90;1.37;;;24.50;64.90;;;;;;5056667;28;20437;-85
2024/04/06 06:37:03;;;;;;;3.40;1.40;;;24.50;64.90;;;;;;5056372;28;20237;-85
2024/04/06 06:39:30;;;;;;;2.30;1.00;;;24.50;64.90;;;;;;5056710;28;20948;-85
2024/04/06 06:41:56;;;;;;;3.83;1.00;;;24.50;64.80;;;;;;5056596;28;20567;-86
2024/04/06 06:44:23;;;;;;;3.60;1.03;;;24.50;64.80;;;;;;5056419;28;20469;-86
2024/04/06 06:46:49;;;;;;;5.83;1.43;;;24.60;64.70;;;;;;5056817;28;20198;-86
2024/04/06 06:49:15;;;;;;;5.63;1.03;;;24.60;63.90;;;;;;5056124;28;20469;-90
2024/04/06 06:51:42;;;;;;;3.40;1.10;;;24.70;64.20;;;;;;5056764;28;20195;-89
2024/04/06 06:54:09;;;;;;;4.47;1.13;;;24.60;63.90;;;;;;5056609;28;20441;-85
2024/04/06 06:56:35;;;;;;;1.93;1.00;;;24.60;64.00;;;;;;5055890;28;21010;-87
2024/04/06 06:59:03;;;;;;;6.90;1.50;;;24.60;63.70;;;;;;5056050;28;20446;-86
2024/04/06 07:01:29;;;;;;;2.90;1.00;;;24.50;63.70;;;;;;5045365;28;20274;-91
2024/04/06 07:03:56;;;;;;;5.43;1.20;;;24.70;63.90;;;;;;5036398;28;21020;-81
2024/04/06 07:06:21;;;;;;;12.53;2.03;;;24.70;63.90;;;;;;5036406;28;20314;-82
2024/04/06 07:08:50;;;;;;;4.23;1.33;;;24.70;64.00;;;;;;5053403;28;20532;-81
2024/04/06 07:11:16;;;;;;;5.60;1.30;;;24.70;63.90;;;;;;5053170;28;20252;-81
2024/04/06 07:13:42;;;;;;;7.03;1.23;;;24.70;63.90;;;;;;5053609;28;20445;-81
2024/04/06 07:16:11;;;;;;;3.63;1.40;;;24.80;64.20;;;;;;5053659;28;20214;-81
2024/04/06 07:18:38;;;;;;;5.30;1.20;;;24.70;64.00;;;;;;5053910;28;20508;-81
2024/04/06 07:21:07;;;;;;;4.63;1.10;;;24.70;64.00;;;;;;5053534;28;20449;-81
2024/04/06 07:23:34;;;;;;;4.80;1.40;;;24.70;64.00;;;;;;5054359;28;20809;-82
2024/04/06 07:26:01;;;;;;;3.50;1.20;;;24.70;64.00;;;;;;5053859;28;20437;-81
2024/04/06 07:28:28;;;;;;;3.30;1.27;;;24.70;63.90;;;;;;5053404;28;20503;-81
2024/04/06 07:30:53;;;;;;;2.03;1.00;;;24.70;63.80;;;;;;5053943;28;20441;-81
2024/04/06 07:33:20;;;;;;;5.23;1.53;;;24.70;63.70;;;;;;5054234;28;20447;-81
2024/04/06 07:35:48;;;;;;;6.60;1.70;;;24.70;63.60;;;;;;5054170;28;20199;-81
2024/04/06 07:38:14;;;;;;;4.43;1.30;;;24.80;63.70;;;;;;5054868;28;20453;-81
2024/04/06 07:40:40;;;;;;;4.80;1.33;;;24.80;63.60;;;;;;5054691;28;20429;-81
2024/04/06 07:43:09;;;;;;;3.90;1.20;;;24.80;63.60;;;;;;5054893;28;20948;-81
2024/04/06 07:45:34;;;;;;;3.27;1.30;;;24.70;63.40;;;;;;5054660;28;20433;-82
2024/04/06 07:48:01;;;;;;;2.73;1.17;;;24.80;63.50;;;;;;5054907;28;20457;-81
2024/04/06 07:50:27;;;;;;;2.77;1.00;;;24.80;63.50;;;;;;5054458;28;20468;-81
2024/04/06 07:52:54;;;;;;;4.00;1.60;;;24.80;63.50;;;;;;5054636;28;20444;-81
2024/04/06 07:55:21;;;;;;;2.67;0.97;;;24.80;63.60;;;;;;5054546;28;20195;-87
2024/04/06 07:57:48;;;;;;;2.47;1.13;;;24.80;63.60;;;;;;5054448;28;20535;-82
2024/04/06 08:00:15;;;;;;;1.50;0.90;;;24.80;63.50;;;;;;5054207;28;20448;-82
2024/04/06 08:02:42;;;;;;;2.17;0.90;;;24.80;63.50;;;;;;5054492;28;20446;-81
2024/04/06 08:05:08;;;;;;;2.13;1.37;;;25.00;63.70;;;;;;5054199;28;20437;-81
2024/04/06 08:07:35;;;;;;;6.73;1.10;;;24.90;63.60;;;;;;5054321;28;20483;-81
2024/04/06 08:10:12;;;;;;;4.27;1.30;;;24.90;63.50;;;;;;5054089;28;20445;-81
2024/04/06 08:12:39;;;;;;;1.60;0.90;;;24.90;63.50;;;;;;5054336;28;20449;-81
2024/04/06 08:15:06;;;;;;;2.10;1.20;;;24.90;63.50;;;;;;5054120;28;20443;-82
2024/04/06 08:17:34;;;;;;;2.30;1.20;;;24.90;63.50;;;;;;5036173;28;20527;-81
2024/04/06 08:19:59;;;;;;;3.60;1.00;;;24.90;63.40;;;;;;5053813;28;20464;-81
2024/04/06 08:22:26;;;;;;;1.80;1.10;;;25.00;63.50;;;;;;5054097;28;20437;-81
2024/04/06 08:24:52;;;;;;;5.73;1.10;;;25.00;64.30;;;;;;5054119;28;20201;-81
2024/04/06 08:27:19;;;;;;;2.00;1.13;;;25.00;63.40;;;;;;5053836;28;20806;-81
2024/04/06 08:29:44;;;;;;;1.80;0.90;;;25.00;63.40;;;;;;5054212;28;20195;-81
2024/04/06 08:32:11;;;;;;;1.63;1.03;;;25.10;63.40;;;;;;5053969;28;20455;-81
2024/04/06 08:34:38;;;;;;;2.53;1.30;;;25.10;63.30;;;;;;5054008;28;20210;-80
2024/04/06 08:37:05;;;;;;;2.60;1.20;;;25.10;63.30;;;;;;5053810;28;20483;-80
2024/04/06 08:39:31;;;;;;;1.70;1.10;;;25.10;63.20;;;;;;5053722;28;20445;-80
2024/04/06 08:41:58;;;;;;;2.90;1.20;;;25.20;63.30;;;;;;5053939;28;20445;-80
2024/04/06 08:44:36;;;;;;;1.93;1.00;;;25.20;63.20;;;;;;5053802;28;20293;-80
2024/04/06 08:47:05;;;;;;;1.50;0.80;;;25.30;63.20;;;;;;5061723;28;20485;-81
2024/04/06 08:49:32;;;;;;;2.53;0.90;;;25.30;63.10;;;;;;5057325;28;20473;-81
2024/04/06 08:52:02;;;;;;;2.50;1.40;;;25.30;63.10;;;;;;5054854;28;20442;-81
2024/04/06 08:54:28;;;;;;;1.77;1.07;;;25.30;63.00;;;;;;5053604;28;20524;-82
2024/04/06 08:56:58;;;;;;;1.90;1.03;;;25.40;63.00;;;;;;5053430;28;20572;-81
2024/04/06 08:59:23;;;;;;;3.23;1.00;;;25.40;63.00;;;;;;5053383;28;20612;-81
2024/04/06 09:01:50;;;;;;;2.03;1.03;;;25.50;62.90;;;;;;5053409;28;20528;-82
2024/04/06 09:04:16;;;;;;;1.50;0.90;;;25.50;62.80;;;;;;5053289;28;20201;-81
2024/04/06 09:06:44;;;;;;;2.00;0.90;;;25.60;62.80;;;;;;5053580;28;20528;-81
2024/04/06 09:09:11;;;;;;;4.90;1.00;;;25.60;62.80;;;;;;5053169;28;20195;-81
2024/04/06 09:11:38;;;;;;;4.27;1.43;;;25.60;62.70;;;;;;5053259;28;20469;-81
2024/04/06 09:14:05;;;;;;;4.67;1.00;;;25.60;62.70;;;;;;5053266;28;20447;-82
2024/04/06 09:16:32;;;;;;;2.37;0.97;;;25.60;62.70;;;;;;5053109;28;20527;-82
2024/04/06 09:18:58;;;;;;;2.93;1.10;;;25.60;62.80;;;;;;5053163;28;20445;-82
2024/04/06 09:21:24;;;;;;;1.50;0.87;;;25.60;62.90;;;;;;5053188;28;20445;-82
2024/04/06 09:23:50;;;;;;;1.80;0.90;;;25.60;62.90;;;;;;5053510;28;20194;-87
2024/04/06 09:26:22;;;;;;;1.70;1.00;;;25.60;62.90;;;;;;5053080;28;20445;-82
2024/04/06 09:28:51;;;;;;;1.80;1.00;;;25.60;62.90;;;;;;5053250;28;20437;-82
2024/04/06 09:31:20;;;;;;;1.87;0.90;;;25.60;62.80;;;;;;5053627;28;20575;-82
2024/04/06 09:33:50;;;;;;;1.80;0.97;;;25.70;63.00;;;;;;5053113;28;20443;-85
2024/04/06 09:36:18;;;;;;;3.80;1.00;;;25.70;62.90;;;;;;5053211;28;20790;-82
2024/04/06 09:38:46;;;;;;;1.60;1.00;;;25.70;62.80;;;;;;5053020;28;20487;-82
2024/04/06 09:41:16;;;;;;;1.83;1.00;;;25.70;62.70;;;;;;5053173;28;20442;-81
2024/04/06 09:43:43;;;;;;;1.70;0.90;;;25.80;62.90;;;;;;5053073;28;20942;-81
2024/04/06 09:46:11;;;;;;;1.80;0.80;;;25.80;62.90;;;;;;5052988;28;20442;-88
2024/04/06 09:48:38;;;;;;;1.80;0.90;;;25.80;62.90;;;;;;5052984;28;20464;-81
2024/04/06 09:51:05;;;;;;;1.80;1.00;;;25.80;62.90;;;;;;5052719;28;20475;-82
2024/04/06 09:53:32;;;;;;;1.60;0.90;;;25.90;63.00;;;;;;5052999;28;20436;-82
2024/04/06 09:56:00;;;;;;;1.50;0.80;;;26.00;62.80;;;;;;5053143;28;20429;-82
2024/04/06 09:58:28;;;;;;;2.37;1.30;;;26.20;62.80;;;;;;5055053;28;21010;-83
2024/04/06 10:00:56;;;;;;;1.70;1.00;;;26.20;62.70;;;;;;5056509;28;20445;-82
2024/04/06 10:03:22;;;;;;;1.47;0.80;;;26.30;62.60;;;;;;5056849;28;20437;-82
2024/04/06 10:05:50;;;;;;;1.90;0.90;;;26.40;62.70;;;;;;5056672;28;20872;-82
2024/04/06 10:08:17;;;;;;;2.03;1.10;;;26.40;62.60;;;;;;5056437;28;20445;-82
2024/04/06 10:10:46;;;;;;;3.10;0.83;;;26.50;62.70;;;;;;5056395;28;20441;-82
2024/04/06 10:13:18;;;;;;;1.90;1.00;;;26.50;62.60;;;;;;5056523;28;20937;-82
2024/04/06 10:15:45;;;;;;;1.80;1.00;;;26.60;63.60;;;;;;5056652;28;20469;-82
2024/04/06 10:18:13;;;;;;;2.77;0.90;;;26.60;62.80;;;;;;5056093;28;20546;-82
2024/04/06 10:20:41;;;;;;;1.60;0.90;;;26.60;62.80;;;;;;5056472;28;20448;-82
2024/04/06 10:23:12;;;;;;;1.70;0.90;;;26.70;62.80;;;;;;5056464;28;20437;-82
2024/04/06 10:25:40;;;;;;;3.10;0.93;;;26.70;62.80;;;;;;5057028;28;20454;-86
2024/04/06 10:28:07;;;;;;;2.43;1.20;;;26.70;62.80;;;;;;5056455;28;20433;-82
2024/04/06 10:30:35;;;;;;;1.50;0.90;;;26.80;62.90;;;;;;5056439;28;20773;-82
2024/04/06 10:33:01;;;;;;;2.13;1.00;;;26.80;62.90;;;;;;5056132;28;20429;-82
2024/04/06 10:35:29;;;;;;;1.50;0.90;;;26.80;62.80;;;;;;5055995;28;20443;-82
2024/04/06 10:37:56;;;;;;;1.90;1.23;;;26.90;62.80;;;;;;5056121;28;20222;-81
2024/04/06 10:40:27;;;;;;;1.60;0.90;;;26.90;62.60;;;;;;5055853;28;20445;-85
2024/04/06 10:42:53;;;;;;;1.50;0.80;;;27.00;62.60;;;;;;5056058;28;20438;-82
2024/04/06 10:45:20;;;;;;;1.80;0.90;;;27.00;62.50;;;;;;5055879;28;20441;-81
2024/04/06 10:47:46;;;;;;;1.80;0.80;;;26.90;62.50;;;;;;5056090;28;20540;-81
2024/04/06 10:50:13;;;;;;;1.57;0.87;;;26.90;62.50;;;;;;5055674;28;20547;-82
2024/04/06 10:52:42;;;;;;;1.73;1.00;;;26.90;62.50;;;;;;5055989;28;20223;-81
2024/04/06 10:55:15;;;;;;;2.23;1.00;;;26.90;62.50;;;;;;5055915;28;20471;-81
2024/04/06 10:57:42;;;;;;;1.77;0.90;;;26.90;62.60;;;;;;5055792;28;20495;-81
2024/04/06 11:00:11;;;;;;;2.10;1.10;;;26.80;62.50;;;;;;5055497;28;20445;-83
2024/04/06 11:02:37;;;;;;;1.80;0.70;;;26.80;62.60;;;;;;5055563;28;20444;-81
2024/04/06 11:05:04;;;;;;;1.60;0.93;;;26.80;62.80;;;;;;5055548;28;20438;-84
2024/04/06 11:07:30;;;;;;;1.90;1.00;;;26.70;62.80;;;;;;5055482;28;20437;-81
2024/04/06 11:09:59;;;;;;;2.13;0.80;;;26.70;62.90;;;;;;5054185;28;20441;-82
2024/04/06 11:12:28;;;;;;;2.20;0.90;;;26.70;62.90;;;;;;5055363;28;20443;-81
2024/04/06 11:14:59;;;;;;;1.60;0.90;;;26.70;63.00;;;;;;5055363;28;20520;-81
2024/04/06 11:17:24;;;;;;;1.63;0.90;;;26.80;63.00;;;;;;5055275;28;20995;-81
2024/04/06 11:19:53;;;;;;;1.90;0.97;;;26.80;63.00;;;;;;5055348;28;20444;-81
2024/04/06 11:22:20;;;;;;;1.63;0.90;;;26.80;63.10;;;;;;5055403;28;20199;-82
2024/04/06 11:24:48;;;;;;;2.37;1.10;;;26.80;63.10;;;;;;5055483;28;20438;-82
2024/04/06 11:27:19;;;;;;;1.60;1.00;;;26.80;63.20;;;;;;5037887;28;20449;-82
2024/04/06 11:29:48;;;;;;;1.80;0.90;;;26.80;63.20;;;;;;5055026;28;20962;-82
2024/04/06 11:32:19;;;;;;;1.67;0.90;;;26.90;63.20;;;;;;5055093;28;20908;-82
2024/04/06 11:34:46;;;;;;;1.50;0.90;;;26.90;63.10;;;;;;5055192;28;20491;-81
2024/04/06 11:37:12;;;;;;;1.50;0.80;;;26.90;63.10;;;;;;5054845;28;20481;-82
2024/04/06 11:39:38;;;;;;;1.60;0.90;;;26.90;63.10;;;;;;5054723;28;20444;-83
2024/04/06 11:42:05;;;;;;;1.70;1.00;;;26.90;63.00;;;;;;5055034;28;20210;-82
2024/04/06 11:44:33;;;;;;;1.60;0.90;;;27.00;63.10;;;;;;5055246;28;20448;-82
2024/04/06 11:46:59;;;;;;;1.50;0.87;;;27.10;63.20;;;;;;5054656;28;20475;-87
2024/04/06 11:49:26;;;;;;;5.00;1.03;;;27.00;63.20;;;;;;5054897;28;20473;-83
2024/04/06 11:51:52;;;;;;;2.47;0.90;;;27.00;63.20;;;;;;5054736;28;20925;-82
2024/04/06 11:54:18;;;;;;;1.90;0.90;;;27.00;63.10;;;;;;5054707;28;20456;-82
2024/04/06 11:56:44;;;;;;;1.70;0.90;;;27.00;63.20;;;;;;5063667;28;20183;-83
2024/04/06 11:59:11;;;;;;;1.50;0.80;;;26.90;63.10;;;;;;5061619;28;20448;-82
2024/04/06 12:01:40;;;;;;;1.70;0.90;;;26.90;63.20;;;;;;5062962;28;20646;-82
2024/04/06 12:04:07;;;;;;;1.50;0.80;;;26.90;63.30;;;;;;5054742;28;20479;-81
2024/04/06 12:06:33;;;;;;;1.70;0.90;;;26.90;63.40;;;;;;5054298;28;20444;-81
2024/04/06 12:09:00;;;;;;;1.70;0.83;;;26.90;63.50;;;;;;5054477;28;20445;-81
2024/04/06 12:11:26;;;;;;;2.23;1.10;;;26.80;63.50;;;;;;5054385;28;20194;-82
2024/04/06 12:13:53;;;;;;;2.27;1.00;;;26.80;63.50;;;;;;5054384;28;20437;-82
2024/04/06 12:16:19;;;;;;;1.80;0.80;;;26.80;63.50;;;;;;5054376;28;20433;-81
2024/04/06 12:18:47;;;;;;;1.90;1.00;;;26.80;63.50;;;;;;5054234;28;20489;-84
2024/04/06 12:21:13;;;;;;;1.70;1.00;;;26.80;63.60;;;;;;5053812;28;20445;-81
2024/04/06 12:23:39;;;;;;;2.53;0.90;;;26.80;63.60;;;;;;5054123;28;20443;-81
2024/04/06 12:26:05;;;;;;;1.80;0.90;;;26.80;63.60;;;;;;5054106;28;20195;-81
2024/04/06 12:28:32;;;;;;;1.70;0.90;;;26.80;63.60;;;;;;5054072;28;20459;-81
2024/04/06 12:30:58;;;;;;;1.40;0.77;;;26.80;63.70;;;;;;5053853;28;20225;-82
2024/04/06 12:33:24;;;;;;;1.60;0.90;;;26.80;63.70;;;;;;5054017;28;20430;-81
2024/04/06 12:35:52;;;;;;;1.90;1.03;;;26.80;63.60;;;;;;5053989;28;20202;-82
2024/04/06 12:38:19;;;;;;;2.00;0.93;;;26.80;64.60;;;;;;5053998;28;20558;-85
2024/04/06 12:40:45;;;;;;;2.80;0.90;;;26.80;63.70;;;;;;5053751;28;20437;-82
2024/04/06 12:43:13;;;;;;;1.50;0.80;;;26.80;63.70;;;;;;5054299;28;20464;-81
2024/04/06 12:45:38;;;;;;;1.90;1.10;;;26.80;63.80;;;;;;5053649;28;20437;-82